Terminal Aerodrome Forecast
Issued by NWS

Current Version | Previous Version | Text Only | Print | Product List | Glossary On
Versions: 1 2 3 4 5 6 7 8 9 10 11 12 13 14 15 16
460
FTUS43 KGRR 190540
TAFMKG
TAF
KMKG 190540Z 1906/2006 VRB03KT P6SM VCSH BKN040
     FM190900 VRB04KT P6SM BKN100
     FM191500 25006KT P6SM SCT040=

USA.gov is the U.S. government's official web portal to all federal, state and local government web resources and services.